sensor_id;sensor_type;location;lat;lon;timestamp;P1;durP1;ratioP1;P2;durP2;ratioP2
84133;SDS011;74235;48.688;9.708;2023-11-19T00:00:19;0.88;;;0.85;;
84133;SDS011;74235;48.688;9.708;2023-11-19T00:02:46;0.60;;;0.60;;
84133;SDS011;74235;48.688;9.708;2023-11-19T00:05:14;0.75;;;0.63;;
84133;SDS011;74235;48.688;9.708;2023-11-19T00:07:42;0.50;;;0.50;;
84133;SDS011;74235;48.688;9.708;2023-11-19T00:10:10;0.80;;;0.80;;
84133;SDS011;74235;48.688;9.708;2023-11-19T00:12:40;0.65;;;0.63;;
84133;SDS011;74235;48.688;9.708;2023-11-19T00:15:11;0.60;;;0.60;;
84133;SDS011;74235;48.688;9.708;2023-11-19T00:17:39;0.60;;;0.60;;
84133;SDS011;74235;48.688;9.708;2023-11-19T00:20:09;1.58;;;0.90;;
84133;SDS011;74235;48.688;9.708;2023-11-19T00:22:37;0.80;;;0.80;;
84133;SDS011;74235;48.688;9.708;2023-11-19T00:25:15;0.93;;;0.90;;
84133;SDS011;74235;48.688;9.708;2023-11-19T00:27:44;0.60;;;0.60;;
84133;SDS011;74235;48.688;9.708;2023-11-19T00:30:12;0.52;;;0.52;;
84133;SDS011;74235;48.688;9.708;2023-11-19T00:32:41;0.80;;;0.80;;
84133;SDS011;74235;48.688;9.708;2023-11-19T00:35:09;0.75;;;0.75;;
84133;SDS011;74235;48.688;9.708;2023-11-19T00:37:42;0.93;;;0.93;;
84133;SDS011;74235;48.688;9.708;2023-11-19T00:40:10;0.70;;;0.70;;
84133;SDS011;74235;48.688;9.708;2023-11-19T00:42:38;0.80;;;0.80;;
84133;SDS011;74235;48.688;9.708;2023-11-19T00:45:08;0.60;;;0.60;;
84133;SDS011;74235;48.688;9.708;2023-11-19T00:47:38;0.85;;;0.82;;
84133;SDS011;74235;48.688;9.708;2023-11-19T00:50:06;0.60;;;0.60;;
84133;SDS011;74235;48.688;9.708;2023-11-19T00:52:38;0.57;;;0.57;;
84133;SDS011;74235;48.688;9.708;2023-11-19T00:55:06;0.60;;;0.60;;
84133;SDS011;74235;48.688;9.708;2023-11-19T00:57:35;0.65;;;0.65;;
84133;SDS011;74235;48.688;9.708;2023-11-19T01:02:39;0.77;;;0.68;;
84133;SDS011;74235;48.688;9.708;2023-11-19T01:05:08;0.70;;;0.70;;
84133;SDS011;74235;48.688;9.708;2023-11-19T01:07:36;0.68;;;0.68;;
84133;SDS011;74235;48.688;9.708;2023-11-19T01:10:04;0.85;;;0.80;;
84133;SDS011;74235;48.688;9.708;2023-11-19T01:12:32;0.73;;;0.73;;
84133;SDS011;74235;48.688;9.708;2023-11-19T01:15:00;0.47;;;0.47;;
84133;SDS011;74235;48.688;9.708;2023-11-19T01:17:30;0.43;;;0.43;;
84133;SDS011;74235;48.688;9.708;2023-11-19T01:20:00;0.52;;;0.52;;
84133;SDS011;74235;48.688;9.708;2023-11-19T01:22:27;0.80;;;0.80;;
84133;SDS011;74235;48.688;9.708;2023-11-19T01:24:55;0.50;;;0.50;;
84133;SDS011;74235;48.688;9.708;2023-11-19T01:27:22;0.55;;;0.52;;
84133;SDS011;74235;48.688;9.708;2023-11-19T01:29:51;0.63;;;0.63;;
84133;SDS011;74235;48.688;9.708;2023-11-19T01:32:18;0.85;;;0.85;;
84133;SDS011;74235;48.688;9.708;2023-11-19T01:34:46;0.63;;;0.63;;
84133;SDS011;74235;48.688;9.708;2023-11-19T01:39:43;0.52;;;0.52;;
84133;SDS011;74235;48.688;9.708;2023-11-19T01:42:11;1.15;;;1.05;;
84133;SDS011;74235;48.688;9.708;2023-11-19T01:44:42;0.63;;;0.60;;
84133;SDS011;74235;48.688;9.708;2023-11-19T01:47:21;0.82;;;0.80;;
84133;SDS011;74235;48.688;9.708;2023-11-19T01:49:49;0.60;;;0.60;;
84133;SDS011;74235;48.688;9.708;2023-11-19T01:52:19;0.68;;;0.68;;
84133;SDS011;74235;48.688;9.708;2023-11-19T01:54:47;0.63;;;0.50;;
84133;SDS011;74235;48.688;9.708;2023-11-19T01:57:15;0.50;;;0.50;;
84133;SDS011;74235;48.688;9.708;2023-11-19T01:59:43;0.90;;;0.90;;
84133;SDS011;74235;48.688;9.708;2023-11-19T02:02:11;1.17;;;1.08;;
84133;SDS011;74235;48.688;9.708;2023-11-19T02:04:41;0.68;;;0.68;;
84133;SDS011;74235;48.688;9.708;2023-11-19T02:09:37;0.40;;;0.40;;
84133;SDS011;74235;48.688;9.708;2023-11-19T02:12:06;0.60;;;0.60;;
84133;SDS011;74235;48.688;9.708;2023-11-19T02:14:34;0.65;;;0.65;;
84133;SDS011;74235;48.688;9.708;2023-11-19T02:17:02;0.35;;;0.35;;
84133;SDS011;74235;48.688;9.708;2023-11-19T02:19:29;0.45;;;0.45;;
84133;SDS011;74235;48.688;9.708;2023-11-19T02:21:57;0.70;;;0.70;;
84133;SDS011;74235;48.688;9.708;2023-11-19T02:24:25;0.73;;;0.73;;
84133;SDS011;74235;48.688;9.708;2023-11-19T02:26:57;0.68;;;0.60;;
84133;SDS011;74235;48.688;9.708;2023-11-19T02:29:30;0.70;;;0.70;;
84133;SDS011;74235;48.688;9.708;2023-11-19T02:31:58;0.43;;;0.43;;
84133;SDS011;74235;48.688;9.708;2023-11-19T02:36:53;0.50;;;0.50;;
84133;SDS011;74235;48.688;9.708;2023-11-19T02:41:48;0.65;;;0.65;;
84133;SDS011;74235;48.688;9.708;2023-11-19T02:44:19;0.70;;;0.70;;
84133;SDS011;74235;48.688;9.708;2023-11-19T02:46:47;0.50;;;0.50;;
84133;SDS011;74235;48.688;9.708;2023-11-19T02:49:15;0.55;;;0.55;;
84133;SDS011;74235;48.688;9.708;2023-11-19T02:51:43;0.45;;;0.45;;
84133;SDS011;74235;48.688;9.708;2023-11-19T02:54:10;0.50;;;0.50;;
84133;SDS011;74235;48.688;9.708;2023-11-19T02:56:38;0.52;;;0.52;;
84133;SDS011;74235;48.688;9.708;2023-11-19T02:59:09;0.70;;;0.70;;
84133;SDS011;74235;48.688;9.708;2023-11-19T03:01:55;0.50;;;0.50;;
84133;SDS011;74235;48.688;9.708;2023-11-19T03:04:24;0.77;;;0.73;;
84133;SDS011;74235;48.688;9.708;2023-11-19T03:06:51;0.45;;;0.45;;
84133;SDS011;74235;48.688;9.708;2023-11-19T03:09:20;0.70;;;0.70;;
84133;SDS011;74235;48.688;9.708;2023-11-19T03:11:48;0.50;;;0.50;;
84133;SDS011;74235;48.688;9.708;2023-11-19T03:14:15;0.47;;;0.47;;
84133;SDS011;74235;48.688;9.708;2023-11-19T03:16:44;0.40;;;0.40;;
84133;SDS011;74235;48.688;9.708;2023-11-19T03:19:15;0.50;;;0.50;;
84133;SDS011;74235;48.688;9.708;2023-11-19T03:21:52;0.52;;;0.52;;
84133;SDS011;74235;48.688;9.708;2023-11-19T03:24:21;0.30;;;0.30;;
84133;SDS011;74235;48.688;9.708;2023-11-19T03:26:48;0.75;;;0.75;;
84133;SDS011;74235;48.688;9.708;2023-11-19T03:29:17;0.57;;;0.57;;
84133;SDS011;74235;48.688;9.708;2023-11-19T03:31:44;0.68;;;0.68;;
84133;SDS011;74235;48.688;9.708;2023-11-19T03:34:12;0.60;;;0.60;;
84133;SDS011;74235;48.688;9.708;2023-11-19T03:39:10;0.40;;;0.40;;
84133;SDS011;74235;48.688;9.708;2023-11-19T03:41:38;0.60;;;0.60;;
84133;SDS011;74235;48.688;9.708;2023-11-19T03:44:08;0.47;;;0.47;;
84133;SDS011;74235;48.688;9.708;2023-11-19T03:46:36;0.35;;;0.35;;
84133;SDS011;74235;48.688;9.708;2023-11-19T03:49:04;0.52;;;0.52;;
84133;SDS011;74235;48.688;9.708;2023-11-19T03:51:34;0.75;;;0.47;;
84133;SDS011;74235;48.688;9.708;2023-11-19T03:54:03;0.57;;;0.57;;
84133;SDS011;74235;48.688;9.708;2023-11-19T03:56:31;0.45;;;0.45;;
84133;SDS011;74235;48.688;9.708;2023-11-19T04:01:26;0.30;;;0.30;;
84133;SDS011;74235;48.688;9.708;2023-11-19T04:03:53;0.52;;;0.52;;
84133;SDS011;74235;48.688;9.708;2023-11-19T04:06:23;0.38;;;0.38;;
84133;SDS011;74235;48.688;9.708;2023-11-19T04:08:51;0.40;;;0.40;;
84133;SDS011;74235;48.688;9.708;2023-11-19T04:11:19;0.63;;;0.63;;
84133;SDS011;74235;48.688;9.708;2023-11-19T04:13:47;0.68;;;0.68;;
84133;SDS011;74235;48.688;9.708;2023-11-19T04:16:15;1.02;;;0.75;;
84133;SDS011;74235;48.688;9.708;2023-11-19T04:18:42;0.25;;;0.25;;
84133;SDS011;74235;48.688;9.708;2023-11-19T04:21:10;0.32;;;0.32;;
84133;SDS011;74235;48.688;9.708;2023-11-19T04:23:38;0.43;;;0.43;;
84133;SDS011;74235;48.688;9.708;2023-11-19T04:26:05;0.50;;;0.50;;
84133;SDS011;74235;48.688;9.708;2023-11-19T04:28:38;0.40;;;0.40;;
84133;SDS011;74235;48.688;9.708;2023-11-19T04:31:06;0.30;;;0.30;;
84133;SDS011;74235;48.688;9.708;2023-11-19T04:33:33;0.32;;;0.30;;
84133;SDS011;74235;48.688;9.708;2023-11-19T04:36:01;0.47;;;0.47;;
84133;SDS011;74235;48.688;9.708;2023-11-19T04:38:29;0.55;;;0.55;;
84133;SDS011;74235;48.688;9.708;2023-11-19T04:40:57;0.43;;;0.38;;
84133;SDS011;74235;48.688;9.708;2023-11-19T04:43:25;0.50;;;0.50;;
84133;SDS011;74235;48.688;9.708;2023-11-19T04:45:54;0.90;;;0.80;;
84133;SDS011;74235;48.688;9.708;2023-11-19T04:48:21;0.40;;;0.40;;
84133;SDS011;74235;48.688;9.708;2023-11-19T04:50:49;0.82;;;0.60;;
84133;SDS011;74235;48.688;9.708;2023-11-19T04:53:18;0.60;;;0.60;;
84133;SDS011;74235;48.688;9.708;2023-11-19T04:55:45;0.65;;;0.65;;
84133;SDS011;74235;48.688;9.708;2023-11-19T04:58:13;0.45;;;0.45;;
84133;SDS011;74235;48.688;9.708;2023-11-19T05:00:40;0.70;;;0.68;;
84133;SDS011;74235;48.688;9.708;2023-11-19T05:03:09;0.60;;;0.60;;
84133;SDS011;74235;48.688;9.708;2023-11-19T05:05:37;0.57;;;0.57;;
84133;SDS011;74235;48.688;9.708;2023-11-19T05:10:32;0.52;;;0.52;;
84133;SDS011;74235;48.688;9.708;2023-11-19T05:13:00;0.52;;;0.52;;
84133;SDS011;74235;48.688;9.708;2023-11-19T05:15:27;0.50;;;0.50;;
84133;SDS011;74235;48.688;9.708;2023-11-19T05:17:55;0.60;;;0.60;;
84133;SDS011;74235;48.688;9.708;2023-11-19T05:20:24;0.60;;;0.60;;
84133;SDS011;74235;48.688;9.708;2023-11-19T05:22:51;0.40;;;0.40;;
84133;SDS011;74235;48.688;9.708;2023-11-19T05:25:20;0.43;;;0.43;;
84133;SDS011;74235;48.688;9.708;2023-11-19T05:27:47;0.32;;;0.32;;
84133;SDS011;74235;48.688;9.708;2023-11-19T05:30:15;0.68;;;0.68;;
84133;SDS011;74235;48.688;9.708;2023-11-19T05:32:42;0.50;;;0.50;;
84133;SDS011;74235;48.688;9.708;2023-11-19T05:35:10;0.50;;;0.50;;
84133;SDS011;74235;48.688;9.708;2023-11-19T05:37:39;0.50;;;0.50;;
84133;SDS011;74235;48.688;9.708;2023-11-19T05:40:07;0.35;;;0.35;;
84133;SDS011;74235;48.688;9.708;2023-11-19T05:42:42;0.32;;;0.32;;
84133;SDS011;74235;48.688;9.708;2023-11-19T05:47:38;0.40;;;0.40;;
84133;SDS011;74235;48.688;9.708;2023-11-19T05:50:06;0.50;;;0.50;;
84133;SDS011;74235;48.688;9.708;2023-11-19T05:52:35;0.30;;;0.30;;
84133;SDS011;74235;48.688;9.708;2023-11-19T05:55:04;0.57;;;0.57;;
84133;SDS011;74235;48.688;9.708;2023-11-19T05:57:36;0.65;;;0.65;;
84133;SDS011;74235;48.688;9.708;2023-11-19T06:00:13;0.63;;;0.63;;
84133;SDS011;74235;48.688;9.708;2023-11-19T06:02:42;0.52;;;0.52;;
84133;SDS011;74235;48.688;9.708;2023-11-19T06:05:10;0.43;;;0.43;;
84133;SDS011;74235;48.688;9.708;2023-11-19T06:07:38;0.40;;;0.40;;
84133;SDS011;74235;48.688;9.708;2023-11-19T06:10:08;0.50;;;0.50;;
84133;SDS011;74235;48.688;9.708;2023-11-19T06:12:37;0.30;;;0.30;;
84133;SDS011;74235;48.688;9.708;2023-11-19T06:15:05;0.57;;;0.57;;
84133;SDS011;74235;48.688;9.708;2023-11-19T06:17:35;0.70;;;0.70;;
84133;SDS011;74235;48.688;9.708;2023-11-19T06:22:31;0.30;;;0.30;;
84133;SDS011;74235;48.688;9.708;2023-11-19T06:24:59;0.32;;;0.32;;
84133;SDS011;74235;48.688;9.708;2023-11-19T06:27:28;0.88;;;0.85;;
84133;SDS011;74235;48.688;9.708;2023-11-19T06:29:56;0.57;;;0.57;;
84133;SDS011;74235;48.688;9.708;2023-11-19T06:32:23;0.43;;;0.43;;
84133;SDS011;74235;48.688;9.708;2023-11-19T06:37:18;0.45;;;0.45;;
84133;SDS011;74235;48.688;9.708;2023-11-19T06:39:46;0.22;;;0.22;;
84133;SDS011;74235;48.688;9.708;2023-11-19T06:42:14;0.40;;;0.40;;
84133;SDS011;74235;48.688;9.708;2023-11-19T06:44:42;0.35;;;0.35;;
84133;SDS011;74235;48.688;9.708;2023-11-19T06:47:10;0.32;;;0.32;;
84133;SDS011;74235;48.688;9.708;2023-11-19T06:49:37;0.30;;;0.30;;
84133;SDS011;74235;48.688;9.708;2023-11-19T06:52:05;0.47;;;0.47;;
84133;SDS011;74235;48.688;9.708;2023-11-19T06:54:32;0.32;;;0.32;;
84133;SDS011;74235;48.688;9.708;2023-11-19T06:57:01;0.45;;;0.45;;
84133;SDS011;74235;48.688;9.708;2023-11-19T06:59:30;0.43;;;0.43;;
84133;SDS011;74235;48.688;9.708;2023-11-19T07:01:59;0.32;;;0.32;;
84133;SDS011;74235;48.688;9.708;2023-11-19T07:04:26;0.43;;;0.43;;
84133;SDS011;74235;48.688;9.708;2023-11-19T07:06:54;0.30;;;0.30;;
84133;SDS011;74235;48.688;9.708;2023-11-19T07:09:21;0.38;;;0.38;;
84133;SDS011;74235;48.688;9.708;2023-11-19T07:11:50;0.20;;;0.20;;
84133;SDS011;74235;48.688;9.708;2023-11-19T07:14:20;0.68;;;0.68;;
84133;SDS011;74235;48.688;9.708;2023-11-19T07:16:50;0.47;;;0.47;;
84133;SDS011;74235;48.688;9.708;2023-11-19T07:19:19;0.30;;;0.30;;
84133;SDS011;74235;48.688;9.708;2023-11-19T07:21:46;0.35;;;0.35;;
84133;SDS011;74235;48.688;9.708;2023-11-19T07:24:14;0.40;;;0.40;;
84133;SDS011;74235;48.688;9.708;2023-11-19T07:26:42;0.50;;;0.50;;
84133;SDS011;74235;48.688;9.708;2023-11-19T07:29:10;0.40;;;0.40;;
84133;SDS011;74235;48.688;9.708;2023-11-19T07:31:38;0.20;;;0.20;;
84133;SDS011;74235;48.688;9.708;2023-11-19T07:34:06;0.40;;;0.40;;
84133;SDS011;74235;48.688;9.708;2023-11-19T07:39:03;0.32;;;0.32;;
84133;SDS011;74235;48.688;9.708;2023-11-19T07:41:31;0.40;;;0.40;;
84133;SDS011;74235;48.688;9.708;2023-11-19T07:44:00;0.40;;;0.40;;
84133;SDS011;74235;48.688;9.708;2023-11-19T07:46:27;0.28;;;0.28;;
84133;SDS011;74235;48.688;9.708;2023-11-19T07:48:55;0.40;;;0.40;;
84133;SDS011;74235;48.688;9.708;2023-11-19T07:51:22;0.38;;;0.38;;
84133;SDS011;74235;48.688;9.708;2023-11-19T07:53:51;0.30;;;0.30;;
84133;SDS011;74235;48.688;9.708;2023-11-19T07:56:18;0.45;;;0.40;;
84133;SDS011;74235;48.688;9.708;2023-11-19T07:58:46;0.40;;;0.40;;
84133;SDS011;74235;48.688;9.708;2023-11-19T08:01:15;0.40;;;0.40;;
84133;SDS011;74235;48.688;9.708;2023-11-19T08:03:43;0.50;;;0.50;;
84133;SDS011;74235;48.688;9.708;2023-11-19T08:06:25;0.40;;;0.40;;
84133;SDS011;74235;48.688;9.708;2023-11-19T08:08:54;0.60;;;0.60;;
84133;SDS011;74235;48.688;9.708;2023-11-19T08:11:22;0.57;;;0.57;;
84133;SDS011;74235;48.688;9.708;2023-11-19T08:13:49;0.40;;;0.40;;
84133;SDS011;74235;48.688;9.708;2023-11-19T08:16:17;0.35;;;0.35;;
84133;SDS011;74235;48.688;9.708;2023-11-19T08:18:44;0.35;;;0.35;;
84133;SDS011;74235;48.688;9.708;2023-11-19T08:21:12;0.22;;;0.22;;
84133;SDS011;74235;48.688;9.708;2023-11-19T08:23:40;0.30;;;0.30;;
84133;SDS011;74235;48.688;9.708;2023-11-19T08:26:09;0.43;;;0.43;;
84133;SDS011;74235;48.688;9.708;2023-11-19T08:28:37;0.30;;;0.30;;
84133;SDS011;74235;48.688;9.708;2023-11-19T08:33:32;0.70;;;0.70;;
84133;SDS011;74235;48.688;9.708;2023-11-19T08:35:59;0.52;;;0.52;;
84133;SDS011;74235;48.688;9.708;2023-11-19T08:38:28;0.32;;;0.32;;
84133;SDS011;74235;48.688;9.708;2023-11-19T08:40:58;0.47;;;0.47;;
84133;SDS011;74235;48.688;9.708;2023-11-19T08:43:28;0.40;;;0.40;;
84133;SDS011;74235;48.688;9.708;2023-11-19T08:45:58;0.40;;;0.40;;
84133;SDS011;74235;48.688;9.708;2023-11-19T08:48:25;0.52;;;0.52;;
84133;SDS011;74235;48.688;9.708;2023-11-19T08:53:20;0.50;;;0.50;;
84133;SDS011;74235;48.688;9.708;2023-11-19T08:55:48;0.35;;;0.35;;
84133;SDS011;74235;48.688;9.708;2023-11-19T08:58:16;0.43;;;0.43;;
84133;SDS011;74235;48.688;9.708;2023-11-19T09:00:46;0.60;;;0.50;;
84133;SDS011;74235;48.688;9.708;2023-11-19T09:03:14;0.50;;;0.50;;
84133;SDS011;74235;48.688;9.708;2023-11-19T09:05:41;0.70;;;0.70;;
84133;SDS011;74235;48.688;9.708;2023-11-19T09:08:09;0.60;;;0.60;;
84133;SDS011;74235;48.688;9.708;2023-11-19T09:10:38;0.60;;;0.60;;
84133;SDS011;74235;48.688;9.708;2023-11-19T09:13:05;0.73;;;0.73;;
84133;SDS011;74235;48.688;9.708;2023-11-19T09:15:33;0.73;;;0.73;;
84133;SDS011;74235;48.688;9.708;2023-11-19T09:18:02;0.90;;;0.90;;
84133;SDS011;74235;48.688;9.708;2023-11-19T09:20:30;0.50;;;0.50;;
84133;SDS011;74235;48.688;9.708;2023-11-19T09:23:04;0.60;;;0.57;;
84133;SDS011;74235;48.688;9.708;2023-11-19T09:25:33;0.70;;;0.70;;
84133;SDS011;74235;48.688;9.708;2023-11-19T09:28:03;0.75;;;0.75;;
84133;SDS011;74235;48.688;9.708;2023-11-19T09:33:02;0.77;;;0.77;;
84133;SDS011;74235;48.688;9.708;2023-11-19T09:35:30;1.85;;;0.80;;
84133;SDS011;74235;48.688;9.708;2023-11-19T09:37:57;1.10;;;1.00;;
84133;SDS011;74235;48.688;9.708;2023-11-19T09:40:27;2.80;;;0.90;;
84133;SDS011;74235;48.688;9.708;2023-11-19T09:42:55;1.17;;;0.77;;
84133;SDS011;74235;48.688;9.708;2023-11-19T09:45:23;1.02;;;0.90;;
84133;SDS011;74235;48.688;9.708;2023-11-19T09:47:54;0.73;;;0.73;;
84133;SDS011;74235;48.688;9.708;2023-11-19T09:50:26;1.30;;;1.05;;
84133;SDS011;74235;48.688;9.708;2023-11-19T09:52:53;2.22;;;0.73;;
84133;SDS011;74235;48.688;9.708;2023-11-19T09:55:21;0.77;;;0.75;;
84133;SDS011;74235;48.688;9.708;2023-11-19T09:57:48;0.70;;;0.70;;
84133;SDS011;74235;48.688;9.708;2023-11-19T10:00:19;0.95;;;0.82;;
84133;SDS011;74235;48.688;9.708;2023-11-19T10:02:48;0.80;;;0.80;;
84133;SDS011;74235;48.688;9.708;2023-11-19T10:05:17;1.13;;;1.00;;
84133;SDS011;74235;48.688;9.708;2023-11-19T10:07:49;0.57;;;0.57;;
84133;SDS011;74235;48.688;9.708;2023-11-19T10:10:16;0.65;;;0.65;;
84133;SDS011;74235;48.688;9.708;2023-11-19T10:12:46;0.73;;;0.73;;
84133;SDS011;74235;48.688;9.708;2023-11-19T10:15:20;0.52;;;0.52;;
84133;SDS011;74235;48.688;9.708;2023-11-19T10:17:49;4.57;;;1.30;;
84133;SDS011;74235;48.688;9.708;2023-11-19T10:20:17;3.38;;;1.08;;
84133;SDS011;74235;48.688;9.708;2023-11-19T10:25:24;1.48;;;0.85;;
84133;SDS011;74235;48.688;9.708;2023-11-19T10:27:52;0.70;;;0.70;;
84133;SDS011;74235;48.688;9.708;2023-11-19T10:30:20;2.15;;;1.10;;
84133;SDS011;74235;48.688;9.708;2023-11-19T10:33:04;1.95;;;0.77;;
84133;SDS011;74235;48.688;9.708;2023-11-19T10:35:33;3.25;;;1.00;;
84133;SDS011;74235;48.688;9.708;2023-11-19T10:38:01;3.15;;;0.98;;
84133;SDS011;74235;48.688;9.708;2023-11-19T10:40:41;1.75;;;0.80;;
84133;SDS011;74235;48.688;9.708;2023-11-19T10:43:09;1.83;;;0.85;;
84133;SDS011;74235;48.688;9.708;2023-11-19T10:48:04;0.65;;;0.65;;
84133;SDS011;74235;48.688;9.708;2023-11-19T10:50:34;0.85;;;0.85;;
84133;SDS011;74235;48.688;9.708;2023-11-19T10:53:03;2.92;;;0.70;;
84133;SDS011;74235;48.688;9.708;2023-11-19T10:55:32;0.95;;;0.90;;
84133;SDS011;74235;48.688;9.708;2023-11-19T10:58:03;2.20;;;0.75;;
84133;SDS011;74235;48.688;9.708;2023-11-19T11:00:34;0.73;;;0.73;;
84133;SDS011;74235;48.688;9.708;2023-11-19T11:03:08;0.60;;;0.60;;
84133;SDS011;74235;48.688;9.708;2023-11-19T11:05:38;1.30;;;1.20;;
84133;SDS011;74235;48.688;9.708;2023-11-19T11:08:06;0.70;;;0.70;;
84133;SDS011;74235;48.688;9.708;2023-11-19T11:10:35;1.17;;;1.08;;
84133;SDS011;74235;48.688;9.708;2023-11-19T11:13:25;1.05;;;0.93;;
84133;SDS011;74235;48.688;9.708;2023-11-19T11:15:56;0.70;;;0.70;;
84133;SDS011;74235;48.688;9.708;2023-11-19T11:18:25;1.60;;;0.80;;
84133;SDS011;74235;48.688;9.708;2023-11-19T11:20:54;1.10;;;1.00;;
84133;SDS011;74235;48.688;9.708;2023-11-19T11:23:29;1.02;;;0.90;;
84133;SDS011;74235;48.688;9.708;2023-11-19T11:26:14;1.10;;;0.88;;
84133;SDS011;74235;48.688;9.708;2023-11-19T11:28:58;3.72;;;0.85;;
84133;SDS011;74235;48.688;9.708;2023-11-19T11:31:34;1.42;;;0.93;;
84133;SDS011;74235;48.688;9.708;2023-11-19T11:34:11;2.35;;;1.00;;
84133;SDS011;74235;48.688;9.708;2023-11-19T11:36:54;1.83;;;1.10;;
84133;SDS011;74235;48.688;9.708;2023-11-19T11:39:29;1.77;;;0.82;;
84133;SDS011;74235;48.688;9.708;2023-11-19T11:45:03;0.82;;;0.80;;
84133;SDS011;74235;48.688;9.708;2023-11-19T11:50:20;0.70;;;0.70;;
84133;SDS011;74235;48.688;9.708;2023-11-19T11:55:53;3.33;;;1.20;;
84133;SDS011;74235;48.688;9.708;2023-11-19T11:58:25;1.27;;;1.15;;
84133;SDS011;74235;48.688;9.708;2023-11-19T12:00:56;1.60;;;0.80;;
84133;SDS011;74235;48.688;9.708;2023-11-19T12:03:26;0.75;;;0.75;;
84133;SDS011;74235;48.688;9.708;2023-11-19T12:05:55;0.70;;;0.70;;
84133;SDS011;74235;48.688;9.708;2023-11-19T12:08:25;0.63;;;0.63;;
84133;SDS011;74235;48.688;9.708;2023-11-19T12:10:54;0.60;;;0.60;;
84133;SDS011;74235;48.688;9.708;2023-11-19T12:13:29;0.65;;;0.65;;
84133;SDS011;74235;48.688;9.708;2023-11-19T12:16:14;4.82;;;0.98;;
84133;SDS011;74235;48.688;9.708;2023-11-19T12:18:42;1.02;;;1.02;;
84133;SDS011;74235;48.688;9.708;2023-11-19T12:23:46;0.47;;;0.47;;
84133;SDS011;74235;48.688;9.708;2023-11-19T12:28:59;0.80;;;0.80;;
84133;SDS011;74235;48.688;9.708;2023-11-19T12:31:28;0.73;;;0.73;;
84133;SDS011;74235;48.688;9.708;2023-11-19T12:33:56;0.52;;;0.52;;
84133;SDS011;74235;48.688;9.708;2023-11-19T12:36:26;0.52;;;0.52;;
84133;SDS011;74235;48.688;9.708;2023-11-19T12:41:22;0.75;;;0.73;;
84133;SDS011;74235;48.688;9.708;2023-11-19T12:43:50;0.60;;;0.60;;
84133;SDS011;74235;48.688;9.708;2023-11-19T12:46:18;0.68;;;0.68;;
84133;SDS011;74235;48.688;9.708;2023-11-19T12:48:49;1.98;;;0.70;;
84133;SDS011;74235;48.688;9.708;2023-11-19T12:51:17;0.80;;;0.80;;
84133;SDS011;74235;48.688;9.708;2023-11-19T12:56:16;0.70;;;0.52;;
84133;SDS011;74235;48.688;9.708;2023-11-19T12:58:43;1.60;;;0.85;;
84133;SDS011;74235;48.688;9.708;2023-11-19T13:01:14;0.80;;;0.80;;
84133;SDS011;74235;48.688;9.708;2023-11-19T13:03:43;1.10;;;0.63;;
84133;SDS011;74235;48.688;9.708;2023-11-19T13:06:13;0.60;;;0.60;;
84133;SDS011;74235;48.688;9.708;2023-11-19T13:08:43;1.85;;;0.60;;
84133;SDS011;74235;48.688;9.708;2023-11-19T13:11:11;2.83;;;0.95;;
84133;SDS011;74235;48.688;9.708;2023-11-19T13:13:55;2.33;;;0.55;;
84133;SDS011;74235;48.688;9.708;2023-11-19T13:16:23;0.73;;;0.65;;
84133;SDS011;74235;48.688;9.708;2023-11-19T13:18:52;0.43;;;0.43;;
84133;SDS011;74235;48.688;9.708;2023-11-19T13:23:49;1.15;;;0.75;;
84133;SDS011;74235;48.688;9.708;2023-11-19T13:28:44;0.43;;;0.43;;
84133;SDS011;74235;48.688;9.708;2023-11-19T13:31:11;0.75;;;0.70;;
84133;SDS011;74235;48.688;9.708;2023-11-19T13:33:39;0.80;;;0.80;;
84133;SDS011;74235;48.688;9.708;2023-11-19T13:36:08;0.40;;;0.40;;
84133;SDS011;74235;48.688;9.708;2023-11-19T13:38:38;0.85;;;0.85;;
84133;SDS011;74235;48.688;9.708;2023-11-19T13:41:08;0.73;;;0.73;;
84133;SDS011;74235;48.688;9.708;2023-11-19T13:43:39;0.50;;;0.50;;
84133;SDS011;74235;48.688;9.708;2023-11-19T13:46:07;0.40;;;0.40;;
84133;SDS011;74235;48.688;9.708;2023-11-19T13:48:37;1.75;;;0.63;;
84133;SDS011;74235;48.688;9.708;2023-11-19T13:53:32;0.88;;;0.80;;
84133;SDS011;74235;48.688;9.708;2023-11-19T13:56:19;0.77;;;0.77;;
84133;SDS011;74235;48.688;9.708;2023-11-19T13:58:46;1.13;;;0.70;;
84133;SDS011;74235;48.688;9.708;2023-11-19T14:01:14;0.75;;;0.75;;
84133;SDS011;74235;48.688;9.708;2023-11-19T14:06:09;2.42;;;0.95;;
84133;SDS011;74235;48.688;9.708;2023-11-19T14:08:37;1.40;;;0.85;;
84133;SDS011;74235;48.688;9.708;2023-11-19T14:11:05;1.20;;;0.95;;
84133;SDS011;74235;48.688;9.708;2023-11-19T14:13:35;2.17;;;1.05;;
84133;SDS011;74235;48.688;9.708;2023-11-19T14:16:02;0.77;;;0.77;;
84133;SDS011;74235;48.688;9.708;2023-11-19T14:18:34;1.25;;;1.00;;
84133;SDS011;74235;48.688;9.708;2023-11-19T14:21:02;2.20;;;1.20;;
84133;SDS011;74235;48.688;9.708;2023-11-19T14:23:30;1.02;;;0.93;;
84133;SDS011;74235;48.688;9.708;2023-11-19T14:25:58;2.15;;;0.80;;
84133;SDS011;74235;48.688;9.708;2023-11-19T14:28:25;1.27;;;1.17;;
84133;SDS011;74235;48.688;9.708;2023-11-19T14:30:55;3.63;;;1.33;;
84133;SDS011;74235;48.688;9.708;2023-11-19T14:33:24;4.10;;;0.98;;
84133;SDS011;74235;48.688;9.708;2023-11-19T14:35:51;2.20;;;1.30;;
84133;SDS011;74235;48.688;9.708;2023-11-19T14:38:19;4.30;;;1.50;;
84133;SDS011;74235;48.688;9.708;2023-11-19T14:40:47;3.47;;;1.30;;
84133;SDS011;74235;48.688;9.708;2023-11-19T14:43:15;0.75;;;0.75;;
84133;SDS011;74235;48.688;9.708;2023-11-19T14:45:42;0.65;;;0.65;;
84133;SDS011;74235;48.688;9.708;2023-11-19T14:48:17;1.80;;;0.70;;
84133;SDS011;74235;48.688;9.708;2023-11-19T14:50:45;1.27;;;0.90;;
84133;SDS011;74235;48.688;9.708;2023-11-19T14:53:12;4.60;;;1.00;;
84133;SDS011;74235;48.688;9.708;2023-11-19T14:58:08;2.80;;;0.70;;
84133;SDS011;74235;48.688;9.708;2023-11-19T15:00:39;3.65;;;1.23;;
84133;SDS011;74235;48.688;9.708;2023-11-19T15:03:06;4.22;;;1.25;;
84133;SDS011;74235;48.688;9.708;2023-11-19T15:05:37;1.73;;;0.90;;
84133;SDS011;74235;48.688;9.708;2023-11-19T15:08:07;1.08;;;0.85;;
84133;SDS011;74235;48.688;9.708;2023-11-19T15:10:35;1.77;;;1.00;;
84133;SDS011;74235;48.688;9.708;2023-11-19T15:13:03;1.65;;;1.00;;
84133;SDS011;74235;48.688;9.708;2023-11-19T15:15:31;1.23;;;1.10;;
84133;SDS011;74235;48.688;9.708;2023-11-19T15:18:01;1.95;;;1.13;;
84133;SDS011;74235;48.688;9.708;2023-11-19T15:20:28;1.00;;;0.90;;
84133;SDS011;74235;48.688;9.708;2023-11-19T15:23:01;1.10;;;0.88;;
84133;SDS011;74235;48.688;9.708;2023-11-19T15:25:28;1.55;;;1.02;;
84133;SDS011;74235;48.688;9.708;2023-11-19T15:27:56;1.25;;;1.05;;
84133;SDS011;74235;48.688;9.708;2023-11-19T15:32:54;1.98;;;1.08;;
84133;SDS011;74235;48.688;9.708;2023-11-19T15:35:22;1.65;;;1.08;;
84133;SDS011;74235;48.688;9.708;2023-11-19T15:37:50;0.80;;;0.80;;
84133;SDS011;74235;48.688;9.708;2023-11-19T15:40:18;0.90;;;0.90;;
84133;SDS011;74235;48.688;9.708;2023-11-19T15:42:47;1.65;;;1.02;;
84133;SDS011;74235;48.688;9.708;2023-11-19T15:45:15;2.10;;;1.30;;
84133;SDS011;74235;48.688;9.708;2023-11-19T15:47:43;4.10;;;1.30;;
84133;SDS011;74235;48.688;9.708;2023-11-19T15:50:11;3.10;;;1.80;;
84133;SDS011;74235;48.688;9.708;2023-11-19T15:52:39;2.38;;;1.63;;
84133;SDS011;74235;48.688;9.708;2023-11-19T15:55:07;3.03;;;1.75;;
84133;SDS011;74235;48.688;9.708;2023-11-19T15:57:36;3.65;;;2.20;;
84133;SDS011;74235;48.688;9.708;2023-11-19T16:00:04;4.15;;;1.90;;
84133;SDS011;74235;48.688;9.708;2023-11-19T16:02:33;3.47;;;2.20;;
84133;SDS011;74235;48.688;9.708;2023-11-19T16:07:28;4.18;;;1.95;;
84133;SDS011;74235;48.688;9.708;2023-11-19T16:09:57;3.75;;;2.03;;
84133;SDS011;74235;48.688;9.708;2023-11-19T16:12:24;2.92;;;1.92;;
84133;SDS011;74235;48.688;9.708;2023-11-19T16:14:53;4.78;;;1.80;;
84133;SDS011;74235;48.688;9.708;2023-11-19T16:17:21;4.05;;;2.00;;